sensor_id;sensor_type;location;lat;lon;timestamp;pressure;altitude;pressure_sealevel;temperature;humidity
13867;BME280;7003;46.982;15.248;2022-09-09T00:02:11;97111.97;;;14.16;100.00
13867;BME280;7003;46.982;15.248;2022-09-09T00:04:48;97108.34;;;14.24;100.00
13867;BME280;7003;46.982;15.248;2022-09-09T00:07:25;97110.91;;;14.21;100.00
13867;BME280;7003;46.982;15.248;2022-09-09T00:10:24;97116.03;;;13.95;100.00
13867;BME280;7003;46.982;15.248;2022-09-09T00:13:02;97121.81;;;13.97;100.00
13867;BME280;7003;46.982;15.248;2022-09-09T00:15:39;97112.00;;;14.01;100.00
13867;BME280;7003;46.982;15.248;2022-09-09T00:18:17;97113.63;;;14.05;100.00
13867;BME280;7003;46.982;15.248;2022-09-09T00:20:54;97108.28;;;13.90;100.00
13867;BME280;7003;46.982;15.248;2022-09-09T00:23:28;97108.19;;;13.86;100.00
13867;BME280;7003;46.982;15.248;2022-09-09T00:26:03;97108.38;;;13.93;100.00
13867;BME280;7003;46.982;15.248;2022-09-09T00:28:38;97108.53;;;14.00;100.00
13867;BME280;7003;46.982;15.248;2022-09-09T00:31:12;97109.34;;;13.85;100.00
13867;BME280;7003;46.982;15.248;2022-09-09T00:33:41;97106.22;;;13.83;100.00
13867;BME280;7003;46.982;15.248;2022-09-09T00:36:13;97105.13;;;13.68;100.00
13867;BME280;7003;46.982;15.248;2022-09-09T00:38:48;97099.94;;;13.60;100.00
13867;BME280;7003;46.982;15.248;2022-09-09T00:41:24;97113.31;;;13.60;100.00
13867;BME280;7003;46.982;15.248;2022-09-09T00:44:01;97110.03;;;13.51;100.00
13867;BME280;7003;46.982;15.248;2022-09-09T00:46:45;97106.31;;;13.55;100.00
13867;BME280;7003;46.982;15.248;2022-09-09T00:49:27;97103.81;;;13.46;100.00
13867;BME280;7003;46.982;15.248;2022-09-09T00:52:10;97106.13;;;13.48;100.00
13867;BME280;7003;46.982;15.248;2022-09-09T00:54:49;97116.31;;;13.42;100.00
13867;BME280;7003;46.982;15.248;2022-09-09T00:57:26;97118.72;;;13.47;100.00
13867;BME280;7003;46.982;15.248;2022-09-09T01:00:16;97113.13;;;13.37;100.00
13867;BME280;7003;46.982;15.248;2022-09-09T01:02:53;97113.19;;;13.40;100.00
13867;BME280;7003;46.982;15.248;2022-09-09T01:05:30;97116.31;;;13.42;100.00
13867;BME280;7003;46.982;15.248;2022-09-09T01:08:23;97119.94;;;13.50;100.00
13867;BME280;7003;46.982;15.248;2022-09-09T01:10:58;97129.69;;;13.58;100.00
13867;BME280;7003;46.982;15.248;2022-09-09T01:13:30;97124.13;;;13.20;100.00
13867;BME280;7003;46.982;15.248;2022-09-09T01:16:04;97121.38;;;13.16;100.00
13867;BME280;7003;46.982;15.248;2022-09-09T01:18:34;97125.22;;;13.19;100.00
13867;BME280;7003;46.982;15.248;2022-09-09T01:21:09;97129.97;;;13.25;100.00
13867;BME280;7003;46.982;15.248;2022-09-09T01:23:53;97137.94;;;13.37;100.00
13867;BME280;7003;46.982;15.248;2022-09-09T01:26:39;97138.09;;;13.29;100.00
13867;BME280;7003;46.982;15.248;2022-09-09T01:29:10;97135.69;;;13.11;100.00
13867;BME280;7003;46.982;15.248;2022-09-09T01:31:41;97130.94;;;13.05;100.00
13867;BME280;7003;46.982;15.248;2022-09-09T01:34:10;97124.72;;;13.13;100.00
13867;BME280;7003;46.982;15.248;2022-09-09T01:36:40;97123.06;;;13.24;100.00
13867;BME280;7003;46.982;15.248;2022-09-09T01:39:13;97123.06;;;13.24;100.00
13867;BME280;7003;46.982;15.248;2022-09-09T01:41:45;97121.38;;;13.16;100.00
13867;BME280;7003;46.982;15.248;2022-09-09T01:44:12;97121.38;;;13.16;100.00
13867;BME280;7003;46.982;15.248;2022-09-09T01:46:39;97114.66;;;13.10;100.00
13867;BME280;7003;46.982;15.248;2022-09-09T01:49:10;97119.03;;;13.02;100.00
13867;BME280;7003;46.982;15.248;2022-09-09T01:51:42;97108.91;;;13.08;100.00
13867;BME280;7003;46.982;15.248;2022-09-09T01:54:12;97105.84;;;12.94;100.00
13867;BME280;7003;46.982;15.248;2022-09-09T01:56:58;97113.06;;;12.93;100.00
13867;BME280;7003;46.982;15.248;2022-09-09T01:59:47;97116.38;;;13.02;100.00
13867;BME280;7003;46.982;15.248;2022-09-09T02:02:25;97116.53;;;12.94;100.00
13867;BME280;7003;46.982;15.248;2022-09-09T02:04:55;97124.72;;;13.01;100.00
13867;BME280;7003;46.982;15.248;2022-09-09T02:07:35;97121.13;;;13.09;100.00
13867;BME280;7003;46.982;15.248;2022-09-09T02:10:10;97124.72;;;13.01;100.00
13867;BME280;7003;46.982;15.248;2022-09-09T02:12:45;97124.13;;;12.92;100.00
13867;BME280;7003;46.982;15.248;2022-09-09T02:15:18;97123.72;;;13.05;100.00
13867;BME280;7003;46.982;15.248;2022-09-09T02:17:56;97120.59;;;13.03;100.00
13867;BME280;7003;46.982;15.248;2022-09-09T02:20:29;97122.59;;;13.06;100.00
13867;BME280;7003;46.982;15.248;2022-09-09T02:23:03;97130.28;;;13.08;100.00
13867;BME280;7003;46.982;15.248;2022-09-09T02:25:33;97122.16;;;13.04;100.00
13867;BME280;7003;46.982;15.248;2022-09-09T02:28:05;97120.00;;;13.10;100.00
13867;BME280;7003;46.982;15.248;2022-09-09T02:30:34;97125.50;;;13.14;100.00
13867;BME280;7003;46.982;15.248;2022-09-09T02:33:07;97122.03;;;13.13;100.00
13867;BME280;7003;46.982;15.248;2022-09-09T02:35:40;97131.78;;;13.21;100.00
13867;BME280;7003;46.982;15.248;2022-09-09T02:38:17;97135.69;;;13.24;100.00
13867;BME280;7003;46.982;15.248;2022-09-09T02:40:48;97136.22;;;13.29;100.00
13867;BME280;7003;46.982;15.248;2022-09-09T02:43:16;97140.44;;;13.30;100.00
13867;BME280;7003;46.982;15.248;2022-09-09T02:45:50;97145.00;;;13.30;100.00
13867;BME280;7003;46.982;15.248;2022-09-09T02:48:26;97146.63;;;13.34;100.00
13867;BME280;7003;46.982;15.248;2022-09-09T02:51:05;97146.03;;;13.41;100.00
13867;BME280;7003;46.982;15.248;2022-09-09T02:53:55;97140.34;;;13.42;100.00
13867;BME280;7003;46.982;15.248;2022-09-09T02:56:31;97142.38;;;13.18;100.00
13867;BME280;7003;46.982;15.248;2022-09-09T02:59:04;97145.16;;;13.09;100.00
13867;BME280;7003;46.982;15.248;2022-09-09T03:01:34;97137.91;;;13.22;100.00
13867;BME280;7003;46.982;15.248;2022-09-09T03:04:08;97133.88;;;13.28;100.00
13867;BME280;7003;46.982;15.248;2022-09-09T03:06:42;97131.88;;;13.25;100.00
13867;BME280;7003;46.982;15.248;2022-09-09T03:09:19;97132.56;;;13.22;100.00
13867;BME280;7003;46.982;15.248;2022-09-09T03:11:48;97122.56;;;13.19;100.00
13867;BME280;7003;46.982;15.248;2022-09-09T03:14:24;97122.66;;;13.22;100.00
13867;BME280;7003;46.982;15.248;2022-09-09T03:16:58;97120.41;;;13.24;100.00
13867;BME280;7003;46.982;15.248;2022-09-09T03:19:32;97123.34;;;13.19;100.00
13867;BME280;7003;46.982;15.248;2022-09-09T03:22:18;97131.88;;;13.25;100.00
13867;BME280;7003;46.982;15.248;2022-09-09T03:24:59;97132.81;;;13.17;100.00
13867;BME280;7003;46.982;15.248;2022-09-09T03:27:27;97134.34;;;13.18;100.00
13867;BME280;7003;46.982;15.248;2022-09-09T03:29:58;97144.50;;;13.12;100.00
13867;BME280;7003;46.982;15.248;2022-09-09T03:32:40;97152.84;;;13.10;100.00
13867;BME280;7003;46.982;15.248;2022-09-09T03:35:08;97146.63;;;13.06;100.00
13867;BME280;7003;46.982;15.248;2022-09-09T03:37:39;97150.66;;;13.00;100.00
13867;BME280;7003;46.982;15.248;2022-09-09T03:40:08;97146.38;;;13.11;100.00
13867;BME280;7003;46.982;15.248;2022-09-09T03:42:47;97142.13;;;13.23;100.00
13867;BME280;7003;46.982;15.248;2022-09-09T03:45:21;97148.09;;;13.04;100.00
13867;BME280;7003;46.982;15.248;2022-09-09T03:47:57;97148.59;;;13.09;100.00
13867;BME280;7003;46.982;15.248;2022-09-09T03:50:28;97146.44;;;12.99;100.00
13867;BME280;7003;46.982;15.248;2022-09-09T03:53:00;97151.47;;;12.89;100.00
13867;BME280;7003;46.982;15.248;2022-09-09T03:55:36;97150.31;;;13.02;100.00
13867;BME280;7003;46.982;15.248;2022-09-09T03:58:12;97142.44;;;12.93;100.00
13867;BME280;7003;46.982;15.248;2022-09-09T04:00:53;97142.06;;;13.07;100.00
13867;BME280;7003;46.982;15.248;2022-09-09T04:03:35;97137.66;;;12.99;100.00
13867;BME280;7003;46.982;15.248;2022-09-09T04:06:04;97148.56;;;12.94;100.00
13867;BME280;7003;46.982;15.248;2022-09-09T04:08:35;97140.84;;;13.04;100.00
13867;BME280;7003;46.982;15.248;2022-09-09T04:11:07;97138.44;;;12.99;100.00
13867;BME280;7003;46.982;15.248;2022-09-09T04:13:37;97137.41;;;13.04;100.00
13867;BME280;7003;46.982;15.248;2022-09-09T04:16:08;97144.88;;;12.98;100.00
13867;BME280;7003;46.982;15.248;2022-09-09T04:18:36;97143.00;;;12.99;100.00
13867;BME280;7003;46.982;15.248;2022-09-09T04:21:05;97146.53;;;13.03;100.00
13867;BME280;7003;46.982;15.248;2022-09-09T04:23:34;97147.50;;;13.10;100.00
13867;BME280;7003;46.982;15.248;2022-09-09T04:26:02;97138.28;;;13.08;100.00
13867;BME280;7003;46.982;15.248;2022-09-09T04:28:33;97134.47;;;13.21;100.00
13867;BME280;7003;46.982;15.248;2022-09-09T04:31:09;97137.50;;;13.07;100.00
13867;BME280;7003;46.982;15.248;2022-09-09T04:33:38;97138.28;;;13.08;100.00
13867;BME280;7003;46.982;15.248;2022-09-09T04:36:07;97137.66;;;12.99;100.00
13867;BME280;7003;46.982;15.248;2022-09-09T04:38:36;97134.78;;;12.92;100.00
13867;BME280;7003;46.982;15.248;2022-09-09T04:41:08;97133.72;;;12.81;100.00
13867;BME280;7003;46.982;15.248;2022-09-09T04:43:38;97133.03;;;12.84;100.00
13867;BME280;7003;46.982;15.248;2022-09-09T04:46:12;97137.00;;;12.90;100.00
13867;BME280;7003;46.982;15.248;2022-09-09T04:48:43;97133.03;;;12.84;100.00
13867;BME280;7003;46.982;15.248;2022-09-09T04:51:13;97127.69;;;12.84;100.00
13867;BME280;7003;46.982;15.248;2022-09-09T04:53:41;97130.91;;;12.89;100.00
13867;BME280;7003;46.982;15.248;2022-09-09T04:56:11;97131.22;;;12.88;100.00
13867;BME280;7003;46.982;15.248;2022-09-09T04:58:43;97135.00;;;12.87;100.00
13867;BME280;7003;46.982;15.248;2022-09-09T05:01:16;97137.16;;;12.81;100.00
13867;BME280;7003;46.982;15.248;2022-09-09T05:03:49;97143.47;;;12.89;100.00
13867;BME280;7003;46.982;15.248;2022-09-09T05:06:21;97134.47;;;13.09;100.00
13867;BME280;7003;46.982;15.248;2022-09-09T05:08:55;97132.53;;;12.94;100.00
13867;BME280;7003;46.982;15.248;2022-09-09T05:11:26;97126.41;;;12.93;100.00
13867;BME280;7003;46.982;15.248;2022-09-09T05:13:55;97131.22;;;12.88;100.00
13867;BME280;7003;46.982;15.248;2022-09-09T05:16:25;97126.53;;;12.97;100.00
13867;BME280;7003;46.982;15.248;2022-09-09T05:18:56;97135.25;;;13.09;100.00
13867;BME280;7003;46.982;15.248;2022-09-09T05:21:25;97126.72;;;13.04;100.00
13867;BME280;7003;46.982;15.248;2022-09-09T05:23:56;97123.91;;;13.13;100.00
13867;BME280;7003;46.982;15.248;2022-09-09T05:26:24;97122.06;;;13.29;100.00
13867;BME280;7003;46.982;15.248;2022-09-09T05:28:52;97133.03;;;13.39;100.00
13867;BME280;7003;46.982;15.248;2022-09-09T05:31:19;97139.25;;;13.43;100.00
13867;BME280;7003;46.982;15.248;2022-09-09T05:33:49;97131.66;;;13.45;100.00
13867;BME280;7003;46.982;15.248;2022-09-09T05:36:18;97130.00;;;13.57;100.00
13867;BME280;7003;46.982;15.248;2022-09-09T05:38:46;97133.31;;;13.66;100.00
13867;BME280;7003;46.982;15.248;2022-09-09T05:41:17;97135.91;;;13.78;100.00
13867;BME280;7003;46.982;15.248;2022-09-09T05:43:46;97138.75;;;13.85;100.00
13867;BME280;7003;46.982;15.248;2022-09-09T05:46:18;97130.72;;;14.01;100.00
13867;BME280;7003;46.982;15.248;2022-09-09T05:48:49;97140.09;;;14.10;100.00
13867;BME280;7003;46.982;15.248;2022-09-09T05:51:29;97143.44;;;14.23;100.00
13867;BME280;7003;46.982;15.248;2022-09-09T05:53:58;97138.59;;;14.29;100.00
13867;BME280;7003;46.982;15.248;2022-09-09T05:56:29;97143.34;;;14.19;100.00
13867;BME280;7003;46.982;15.248;2022-09-09T05:59:00;97147.41;;;14.29;100.00
13867;BME280;7003;46.982;15.248;2022-09-09T06:01:32;97152.25;;;14.23;100.00
13867;BME280;7003;46.982;15.248;2022-09-09T06:04:02;97149.19;;;14.41;100.00
13867;BME280;7003;46.982;15.248;2022-09-09T06:06:32;97153.88;;;14.44;100.00
13867;BME280;7003;46.982;15.248;2022-09-09T06:09:06;97154.56;;;14.41;100.00
13867;BME280;7003;46.982;15.248;2022-09-09T06:11:39;97143.44;;;14.39;100.00
13867;BME280;7003;46.982;15.248;2022-09-09T06:14:08;97141.69;;;14.46;100.00
13867;BME280;7003;46.982;15.248;2022-09-09T06:16:38;97136.75;;;14.48;100.00
13867;BME280;7003;46.982;15.248;2022-09-09T06:19:13;97147.75;;;14.43;100.00
13867;BME280;7003;46.982;15.248;2022-09-09T06:21:41;97144.88;;;14.52;100.00
13867;BME280;7003;46.982;15.248;2022-09-09T06:24:10;97146.91;;;14.58;100.00
13867;BME280;7003;46.982;15.248;2022-09-09T06:26:40;97140.69;;;14.70;100.00
13867;BME280;7003;46.982;15.248;2022-09-09T06:29:08;97148.28;;;14.87;100.00
13867;BME280;7003;46.982;15.248;2022-09-09T06:31:37;97156.38;;;14.91;100.00
13867;BME280;7003;46.982;15.248;2022-09-09T06:34:07;97150.91;;;14.84;100.00
13867;BME280;7003;46.982;15.248;2022-09-09T06:36:38;97155.38;;;14.80;100.00
13867;BME280;7003;46.982;15.248;2022-09-09T06:39:07;97153.22;;;14.85;100.00
13867;BME280;7003;46.982;15.248;2022-09-09T06:41:37;97162.53;;;14.91;100.00
13867;BME280;7003;46.982;15.248;2022-09-09T06:44:05;97165.50;;;14.86;100.00
13867;BME280;7003;46.982;15.248;2022-09-09T06:46:35;97165.78;;;15.00;100.00
13867;BME280;7003;46.982;15.248;2022-09-09T06:49:03;97160.69;;;14.95;100.00
13867;BME280;7003;46.982;15.248;2022-09-09T06:51:33;97156.75;;;14.89;100.00
13867;BME280;7003;46.982;15.248;2022-09-09T06:54:05;97152.66;;;14.95;100.00
13867;BME280;7003;46.982;15.248;2022-09-09T06:56:35;97164.66;;;15.01;100.00
13867;BME280;7003;46.982;15.248;2022-09-09T06:59:08;97162.66;;;14.98;100.00
13867;BME280;7003;46.982;15.248;2022-09-09T07:01:38;97164.34;;;15.07;100.00
13867;BME280;7003;46.982;15.248;2022-09-09T07:04:09;97156.03;;;15.12;100.00
13867;BME280;7003;46.982;15.248;2022-09-09T07:06:41;97154.56;;;15.14;100.00
13867;BME280;7003;46.982;15.248;2022-09-09T07:09:15;97161.81;;;15.14;100.00
13867;BME280;7003;46.982;15.248;2022-09-09T07:11:47;97155.25;;;15.11;100.00
13867;BME280;7003;46.982;15.248;2022-09-09T07:14:20;97152.22;;;15.13;100.00
13867;BME280;7003;46.982;15.248;2022-09-09T07:16:48;97159.06;;;15.10;100.00
13867;BME280;7003;46.982;15.248;2022-09-09T07:19:16;97147.63;;;15.13;100.00
13867;BME280;7003;46.982;15.248;2022-09-09T07:21:44;97154.59;;;15.18;100.00
13867;BME280;7003;46.982;15.248;2022-09-09T07:24:15;97161.38;;;15.12;100.00
13867;BME280;7003;46.982;15.248;2022-09-09T07:26:46;97157.66;;;15.16;100.00
13867;BME280;7003;46.982;15.248;2022-09-09T07:29:14;97167.47;;;15.09;100.00
13867;BME280;7003;46.982;15.248;2022-09-09T07:31:43;97159.97;;;15.18;100.00
13867;BME280;7003;46.982;15.248;2022-09-09T07:34:15;97158.63;;;15.27;100.00
13867;BME280;7003;46.982;15.248;2022-09-09T07:36:45;97154.75;;;15.25;100.00
13867;BME280;7003;46.982;15.248;2022-09-09T07:39:20;97159.47;;;15.31;100.00
13867;BME280;7003;46.982;15.248;2022-09-09T07:41:51;97162.22;;;15.35;100.00
13867;BME280;7003;46.982;15.248;2022-09-09T07:44:23;97163.47;;;15.41;100.00
13867;BME280;7003;46.982;15.248;2022-09-09T07:46:53;97158.97;;;15.45;100.00
13867;BME280;7003;46.982;15.248;2022-09-09T07:49:25;97165.88;;;15.46;100.00
13867;BME280;7003;46.982;15.248;2022-09-09T07:51:54;97167.56;;;15.54;100.00
13867;BME280;7003;46.982;15.248;2022-09-09T07:54:24;97171.50;;;15.60;100.00
13867;BME280;7003;46.982;15.248;2022-09-09T07:56:53;97178.78;;;15.60;100.00
13867;BME280;7003;46.982;15.248;2022-09-09T07:59:26;97180.63;;;15.56;100.00
13867;BME280;7003;46.982;15.248;2022-09-09T08:01:59;97179.78;;;15.74;100.00
13867;BME280;7003;46.982;15.248;2022-09-09T08:04:32;97170.31;;;15.81;100.00
13867;BME280;7003;46.982;15.248;2022-09-09T08:07:02;97163.47;;;15.83;100.00
13867;BME280;7003;46.982;15.248;2022-09-09T08:09:34;97162.13;;;15.96;100.00
13867;BME280;7003;46.982;15.248;2022-09-09T08:12:06;97162.22;;;16.00;100.00
13867;BME280;7003;46.982;15.248;2022-09-09T08:14:36;97163.44;;;16.06;100.00
13867;BME280;7003;46.982;15.248;2022-09-09T08:17:07;97162.31;;;16.07;100.00
13867;BME280;7003;46.982;15.248;2022-09-09T08:19:41;97166.72;;;16.18;100.00
13867;BME280;7003;46.982;15.248;2022-09-09T08:22:14;97175.91;;;16.17;100.00
13867;BME280;7003;46.982;15.248;2022-09-09T08:24:47;97175.47;;;16.42;100.00
13867;BME280;7003;46.982;15.248;2022-09-09T08:27:17;97183.66;;;16.49;100.00
13867;BME280;7003;46.982;15.248;2022-09-09T08:29:46;97190.84;;;16.41;100.00
13867;BME280;7003;46.982;15.248;2022-09-09T08:32:14;97204.13;;;16.34;100.00
13867;BME280;7003;46.982;15.248;2022-09-09T08:34:42;97203.44;;;16.37;100.00
13867;BME280;7003;46.982;15.248;2022-09-09T08:37:10;97205.28;;;16.33;100.00
13867;BME280;7003;46.982;15.248;2022-09-09T08:39:40;97206.09;;;16.37;100.00
13867;BME280;7003;46.982;15.248;2022-09-09T08:42:29;97204.91;;;16.35;100.00
13867;BME280;7003;46.982;15.248;2022-09-09T08:45:14;97194.59;;;16.37;100.00
13867;BME280;7003;46.982;15.248;2022-09-09T08:47:55;97198.16;;;16.44;100.00
13867;BME280;7003;46.982;15.248;2022-09-09T08:50:29;97194.75;;;16.47;100.00
13867;BME280;7003;46.982;15.248;2022-09-09T08:53:02;97186.97;;;16.65;100.00
13867;BME280;7003;46.982;15.248;2022-09-09T08:55:39;97185.13;;;16.99;100.00
13867;BME280;7003;46.982;15.248;2022-09-09T08:58:15;97184.66;;;17.23;100.00
13867;BME280;7003;46.982;15.248;2022-09-09T09:01:00;97183.00;;;17.49;100.00
13867;BME280;7003;46.982;15.248;2022-09-09T09:03:55;97191.16;;;17.59;100.00
13867;BME280;7003;46.982;15.248;2022-09-09T09:06:51;97194.63;;;17.56;100.00
13867;BME280;7003;46.982;15.248;2022-09-09T09:09:46;97190.25;;;17.78;100.00
13867;BME280;7003;46.982;15.248;2022-09-09T09:12:40;97182.34;;;17.99;100.00
13867;BME280;7003;46.982;15.248;2022-09-09T09:15:33;97183.16;;;18.03;100.00
13867;BME280;7003;46.982;15.248;2022-09-09T09:18:22;97183.66;;;18.20;100.00
13867;BME280;7003;46.982;15.248;2022-09-09T09:21:12;97187.25;;;18.38;100.00
13867;BME280;7003;46.982;15.248;2022-09-09T09:24:01;97195.69;;;18.36;100.00
13867;BME280;7003;46.982;15.248;2022-09-09T09:26:47;97190.31;;;18.33;100.00
13867;BME280;7003;46.982;15.248;2022-09-09T09:29:34;97185.03;;;18.51;100.00
13867;BME280;7003;46.982;15.248;2022-09-09T09:32:22;97181.94;;;18.49;100.00
13867;BME280;7003;46.982;15.248;2022-09-09T09:34:56;97187.28;;;18.41;100.00
13867;BME280;7003;46.982;15.248;2022-09-09T09:37:30;97187.31;;;18.45;100.00
13867;BME280;7003;46.982;15.248;2022-09-09T09:40:08;97193.50;;;18.49;100.00
13867;BME280;7003;46.982;15.248;2022-09-09T09:42:38;97192.81;;;18.59;100.00
13867;BME280;7003;46.982;15.248;2022-09-09T09:45:25;97179.44;;;18.77;100.00
13867;BME280;7003;46.982;15.248;2022-09-09T09:48:03;97183.75;;;18.89;100.00
13867;BME280;7003;46.982;15.248;2022-09-09T09:50:35;97176.00;;;18.83;100.00
13867;BME280;7003;46.982;15.248;2022-09-09T09:53:22;97178.34;;;18.89;100.00
13867;BME280;7003;46.982;15.248;2022-09-09T09:55:55;97166.19;;;19.27;100.00
13867;BME280;7003;46.982;15.248;2022-09-09T09:58:23;97171.25;;;19.42;100.00
13867;BME280;7003;46.982;15.248;2022-09-09T10:00:54;97177.78;;;19.45;100.00
13867;BME280;7003;46.982;15.248;2022-09-09T10:03:26;97169.38;;;19.57;100.00
13867;BME280;7003;46.982;15.248;2022-09-09T10:05:54;97171.28;;;19.53;100.00
13867;BME280;7003;46.982;15.248;2022-09-09T10:08:24;97156.63;;;19.50;100.00
13867;BME280;7003;46.982;15.248;2022-09-09T10:11:21;97161.19;;;19.39;100.00
13867;BME280;7003;46.982;15.248;2022-09-09T10:13:57;97163.19;;;19.56;100.00
13867;BME280;7003;46.982;15.248;2022-09-09T10:16:40;97161.28;;;19.57;100.00
13867;BME280;7003;46.982;15.248;2022-09-09T10:19:19;97162.44;;;19.56;100.00
13867;BME280;7003;46.982;15.248;2022-09-09T10:21:57;97162.03;;;19.57;100.00
13867;BME280;7003;46.982;15.248;2022-09-09T10:24:42;97151.66;;;19.67;100.00
13867;BME280;7003;46.982;15.248;2022-09-09T10:27:22;97153.97;;;19.75;100.00
13867;BME280;7003;46.982;15.248;2022-09-09T10:30:03;97149.34;;;19.93;100.00
13867;BME280;7003;46.982;15.248;2022-09-09T10:32:41;97161.69;;;19.94;100.00
13867;BME280;7003;46.982;15.248;2022-09-09T10:35:14;97153.22;;;19.82;100.00
13867;BME280;7003;46.982;15.248;2022-09-09T10:40:43;97163.56;;;19.51;100.00
13867;BME280;7003;46.982;15.248;2022-09-09T10:43:23;97166.97;;;19.38;100.00
13867;BME280;7003;46.982;15.248;2022-09-09T10:46:04;97159.25;;;19.36;100.00
13867;BME280;7003;46.982;15.248;2022-09-09T10:48:44;97146.16;;;19.28;100.00
13867;BME280;7003;46.982;15.248;2022-09-09T10:51:24;97145.75;;;19.26;100.00
13867;BME280;7003;46.982;15.248;2022-09-09T10:54:12;97136.91;;;19.36;100.00
13867;BME280;7003;46.982;15.248;2022-09-09T10:56:53;97129.22;;;19.41;100.00
13867;BME280;7003;46.982;15.248;2022-09-09T10:59:25;97127.69;;;19.40;100.00
13867;BME280;7003;46.982;15.248;2022-09-09T11:01:58;97137.28;;;19.31;100.00
13867;BME280;7003;46.982;15.248;2022-09-09T11:04:34;97140.03;;;19.41;100.00
13867;BME280;7003;46.982;15.248;2022-09-09T11:07:09;97134.28;;;19.50;100.00
13867;BME280;7003;46.982;15.248;2022-09-09T11:09:42;97130.44;;;19.58;100.00
13867;BME280;7003;46.982;15.248;2022-09-09T11:12:18;97126.97;;;19.61;100.00
13867;BME280;7003;46.982;15.248;2022-09-09T11:14:49;97125.81;;;19.76;100.00
13867;BME280;7003;46.982;15.248;2022-09-09T11:17:21;97131.22;;;19.80;100.00
13867;BME280;7003;46.982;15.248;2022-09-09T11:19:51;97131.59;;;19.60;100.00
13867;BME280;7003;46.982;15.248;2022-09-09T11:22:27;97123.91;;;19.70;100.00
13867;BME280;7003;46.982;15.248;2022-09-09T11:25:01;97118.09;;;19.75;100.00
13867;BME280;7003;46.982;15.248;2022-09-09T11:27:38;97110.41;;;19.63;100.00
13867;BME280;7003;46.982;15.248;2022-09-09T11:30:18;97099.63;;;19.66;100.00
13867;BME280;7003;46.982;15.248;2022-09-09T11:33:08;97093.84;;;19.89;100.00
13867;BME280;7003;46.982;15.248;2022-09-09T11:35:47;97098.44;;;20.20;100.00
13867;BME280;7003;46.982;15.248;2022-09-09T11:38:25;97094.97;;;20.20;100.00
13867;BME280;7003;46.982;15.248;2022-09-09T11:41:00;97092.25;;;20.16;100.00
13867;BME280;7003;46.982;15.248;2022-09-09T11:43:38;97104.97;;;20.16;100.00
13867;BME280;7003;46.982;15.248;2022-09-09T11:46:10;97092.66;;;20.11;100.00
13867;BME280;7003;46.982;15.248;2022-09-09T11:48:41;97086.88;;;20.09;100.00
13867;BME280;7003;46.982;15.248;2022-09-09T11:51:13;97090.75;;;20.05;100.00
13867;BME280;7003;46.982;15.248;2022-09-09T11:53:50;97091.47;;;20.16;100.00
13867;BME280;7003;46.982;15.248;2022-09-09T11:56:27;97090.31;;;20.20;100.00
13867;BME280;7003;46.982;15.248;2022-09-09T11:58:59;97078.31;;;20.32;100.00
13867;BME280;7003;46.982;15.248;2022-09-09T12:01:41;97083.34;;;20.30;100.00
13867;BME280;7003;46.982;15.248;2022-09-09T12:04:29;97072.16;;;20.39;100.00
13867;BME280;7003;46.982;15.248;2022-09-09T12:07:02;97067.88;;;20.45;100.00
13867;BME280;7003;46.982;15.248;2022-09-09T12:09:43;97063.66;;;20.40;100.00
13867;BME280;7003;46.982;15.248;2022-09-09T12:12:25;97063.66;;;20.36;100.00
13867;BME280;7003;46.982;15.248;2022-09-09T12:15:21;97061.34;;;20.39;100.00
13867;BME280;7003;46.982;15.248;2022-09-09T12:17:52;97062.16;;;20.35;100.00
13867;BME280;7003;46.982;15.248;2022-09-09T12:20:30;97061.38;;;20.28;100.00
13867;BME280;7003;46.982;15.248;2022-09-09T12:23:23;97061.38;;;20.28;100.00
13867;BME280;7003;46.982;15.248;2022-09-09T12:26:08;97043.59;;;20.30;100.00
13867;BME280;7003;46.982;15.248;2022-09-09T12:28:46;97048.63;;;20.28;100.00
13867;BME280;7003;46.982;15.248;2022-09-09T12:31:22;97043.22;;;20.21;100.00
13867;BME280;7003;46.982;15.248;2022-09-09T12:33:53;97040.53;;;20.35;100.00
13867;BME280;7003;46.982;15.248;2022-09-09T12:36:29;97035.50;;;20.38;100.00
13867;BME280;7003;46.982;15.248;2022-09-09T12:38:59;97032.03;;;20.41;100.00
13867;BME280;7003;46.982;15.248;2022-09-09T12:41:40;97026.63;;;20.41;100.00
13867;BME280;7003;46.982;15.248;2022-09-09T12:44:10;97025.84;;;20.36;100.00
13867;BME280;7003;46.982;15.248;2022-09-09T12:46:40;97023.53;;;20.42;100.00
13867;BME280;7003;46.982;15.248;2022-09-09T12:49:26;97016.63;;;20.20;100.00
13867;BME280;7003;46.982;15.248;2022-09-09T12:51:55;97015.91;;;20.05;100.00
13867;BME280;7003;46.982;15.248;2022-09-09T12:54:24;97015.88;;;20.12;100.00
13867;BME280;7003;46.982;15.248;2022-09-09T12:56:53;97026.31;;;20.10;100.00
13867;BME280;7003;46.982;15.248;2022-09-09T12:59:25;97018.22;;;19.99;100.00
13867;BME280;7003;46.982;15.248;2022-09-09T13:01:57;97034.03;;;20.05;100.00
13867;BME280;7003;46.982;15.248;2022-09-09T13:04:29;97032.88;;;19.95;100.00
13867;BME280;7003;46.982;15.248;2022-09-09T13:07:05;97028.28;;;19.88;100.00
13867;BME280;7003;46.982;15.248;2022-09-09T13:09:42;97020.19;;;19.88;100.00
13867;BME280;7003;46.982;15.248;2022-09-09T13:12:17;97015.53;;;19.96;100.00
13867;BME280;7003;46.982;15.248;2022-09-09T13:14:50;97015.53;;;20.03;100.00
13867;BME280;7003;46.982;15.248;2022-09-09T13:17:22;97018.97;;;20.07;100.00
13867;BME280;7003;46.982;15.248;2022-09-09T13:19:52;97017.84;;;19.97;100.00
13867;BME280;7003;46.982;15.248;2022-09-09T13:22:31;97014.78;;;19.88;100.00
13867;BME280;7003;46.982;15.248;2022-09-09T13:25:04;97012.47;;;19.80;100.00
13867;BME280;7003;46.982;15.248;2022-09-09T13:27:35;97007.47;;;19.78;100.00
13867;BME280;7003;46.982;15.248;2022-09-09T13:30:24;97002.09;;;19.60;100.00
13867;BME280;7003;46.982;15.248;2022-09-09T13:33:21;97002.47;;;19.52;100.00